Loyola Beach, Texas
Current Conditions -  °F | °C
As of 11:56 AM on Tuesday 21 Oct 2014 (Local Time) from KNQI Reporting Station
Broken Clouds Broken Clouds  
Wind Chill: 82°   Ceiling: 2700
Heat Index: 87°   Visibility: 10mi
Dew Point: 72°   Wind: 18mph
Humidity: 71%   Direction: 60°ENE
Pressure: 30"   Gusts: NA
Location:  27.3193°N, 97.8839°W
Report Text: KNQI 211656Z 06016KT 10SM BKN027 BKN080 BKN250 28/22 A3000 RMK AO2 SLP155 CB DSNT S-SW T02780222
Loading
Personal Weather Stations






























Interactive Weather Map
Tropical Storm Tracking
New forecast layout! Learn more

10-Day Weather Forecast

Advertisements
Track Severe Weather on mobile